Qi Xian Ling — BRNX — position and weather

sailwx.info

Track history (hours):
 
Tides and Currents Weather Stations Pressure Air Temp Water Temp Dewpoint Dewpoint Depression Visibility Wind Speed Wind Dir Waves Ship Positions

Qi Xian Ling

Last reported at 2017-Nov-25 07:33 UTC. Time now 2017-Dec-17 02:38 UTC.
Position N 36°48' E 003°05'.
Warning: this ship's position is 21 days out of date.

Length 180 m; draft 9.9 m.

Type: Cargo ship. MMSI: 414708000.

Date/timePositionNaut miles runAvg speedWind from/ knotsBaromVisibWave heightAir tempDewpointWater temp
2017-Nov-25 07:33N 36°48' E 003°05'0 0.1
2017-Nov-25 07:30N 36°48' E 003°05'0 0.1
2017-Nov-25 07:00N 36°48' E 003°05'0 0.0
2017-Nov-24 15:30N 36°48' E 003°05'0 0.0
2017-Nov-24 12:27N 36°48' E 003°05'0 0.0
2017-Nov-24 11:50N 36°48' E 003°05'0 0.0
2017-Nov-24 11:29N 36°48' E 003°05'0 0.0
2017-Nov-24 01:32N 36°49' E 003°05'0 0.0
2017-Nov-24 01:26N 36°49' E 003°05'71 2.6
2017-Nov-22 22:22N 36°44' E 001°37'1012.4
2017-Nov-22 21:35N 36°43' E 001°25'112.3
2017-Nov-22 21:30N 36°43' E 001°23'1812.0
2017-Nov-22 20:01N 36°40' E 001°01'012.5
2017-Nov-22 19:59N 36°40' E 001°01'  
2017-Nov-18 16:00N 47°27' W 006°58'611.2
2017-Nov-18 15:26N 47°33' W 006°53'510.9
2017-Nov-18 15:00N 47°37' W 006°50'710.5
2017-Nov-18 14:22N 47°43' W 006°45'410.4
2017-Nov-18 13:58N 47°47' W 006°42'8212.0
2017-Nov-18 07:06N 48°57' W 005°38'1811.1
2017-Nov-18 05:28N 49°01' W 005°11'510.4
2017-Nov-18 04:59N 49°01' W 005°04'13110.6
2017-Nov-17 16:39N 50°00' W 002°04'211.7
2017-Nov-17 16:28N 49°60' W 002°01'612.1
2017-Nov-17 16:01N 49°58' W 001°53'612.7
2017-Nov-17 15:30N 49°56' W 001°43'713.6
2017-Nov-17 15:00N 49°53' W 001°33'714.8
2017-Nov-17 14:31N 49°51' W 001°23'815.7
2017-Nov-17 14:00N 49°48' W 001°11'815.3
2017-Nov-17 13:31N 49°45' W 001°00'1614.6
2017-Nov-17 12:26N 49°39' W 000°38'614.2
2017-Nov-17 12:00N 49°36' W 000°30'713.7
2017-Nov-17 11:30N 49°33' W 000°20'713.0
2017-Nov-17 11:00N 49°31' W 000°11'612.1
2017-Nov-17 10:30N 49°29' W 000°02'611.1
2017-Nov-17 10:00N 49°26' E 000°06'511.0
2017-Nov-17 09:31N 49°26' E 000°14'510.4
2017-Nov-17 09:00N 49°26' E 000°22'4 8.8
2017-Nov-17 08:30N 49°28' E 000°28'3 5.0
2017-Nov-17 08:00N 49°28' E 000°32'3 6.9
2017-Nov-17 07:30N 49°26' E 000°35'3 6.5
2017-Nov-17 07:01N 49°27' E 000°40'4 8.2
2017-Nov-17 06:30N 49°31' E 000°42'4 7.3
2017-Nov-17 06:00N 49°29' E 000°47'4 7.9
2017-Nov-17 05:30N 49°25' E 000°48'2 4.6
2017-Nov-17 05:00N 49°26' E 000°52'4 8.2
2017-Nov-17 04:31N 49°29' E 000°55'510.2
2017-Nov-17 04:00N 49°24' E 000°55'3 6.9
2017-Nov-17 03:30N 49°21' E 000°59'3 5.7
2017-Nov-17 03:00N 49°24' E 001°01'0 0.0
2017-Nov-17 02:24N 49°24' E 001°01'0 0.0
2017-Nov-17 01:57N 49°24' E 001°01'0 0.0
2017-Nov-17 01:30N 49°24' E 001°01'0 0.0
2017-Nov-17 01:00N 49°24' E 001°01'0 0.0
2017-Nov-17 00:30N 49°24' E 001°01'0 0.0
2017-Nov-17 00:00N 49°24' E 001°01'0 0.0
2017-Nov-16 23:30N 49°24' E 001°01'0 0.0
2017-Nov-16 23:00N 49°24' E 001°01'0 0.0
2017-Nov-16 22:27N 49°24' E 001°01'0 0.0
2017-Nov-16 22:00N 49°24' E 001°01'0 0.0
2017-Nov-16 21:30N 49°24' E 001°01'0 0.0
2017-Nov-16 21:00N 49°24' E 001°01'0 0.0
2017-Nov-16 20:30N 49°24' E 001°01'0 0.0
2017-Nov-16 20:00N 49°24' E 001°01'0 0.0
2017-Nov-16 19:30N 49°24' E 001°01'0 0.0
2017-Nov-16 19:00N 49°24' E 001°01'0 0.0
2017-Nov-16 18:30N 49°24' E 001°01'0 0.0
2017-Nov-16 18:00N 49°24' E 001°01'0 0.0
2017-Nov-16 17:27N 49°24' E 001°01'0 0.0
2017-Nov-16 17:00N 49°24' E 001°01'0 0.0
2017-Nov-16 16:30N 49°24' E 001°01'0 0.0
2017-Nov-16 16:00N 49°24' E 001°01'0 0.0
2017-Nov-16 15:30N 49°24' E 001°01'0 0.0
2017-Nov-16 15:00N 49°24' E 001°01'0 0.0
2017-Nov-16 14:27N 49°24' E 001°01'0 0.0
2017-Nov-16 13:57N 49°24' E 001°01'0 0.0
2017-Nov-16 13:30N 49°24' E 001°01'0 0.0
2017-Nov-16 13:00N 49°24' E 001°01'0 0.0
2017-Nov-16 12:30N 49°24' E 001°01'0 0.0
2017-Nov-16 12:00N 49°24' E 001°01'0 0.0
2017-Nov-16 11:27N 49°24' E 001°01'0 0.0
2017-Nov-16 10:57N 49°24' E 001°01'0 0.0
2017-Nov-16 10:30N 49°24' E 001°01'0 0.0
2017-Nov-16 09:57N 49°24' E 001°01'0 0.0
2017-Nov-16 09:27N 49°24' E 001°01'0 0.0
2017-Nov-16 09:00N 49°24' E 001°01'0 0.0
2017-Nov-16 08:30N 49°24' E 001°01'0 0.0
2017-Nov-16 07:57N 49°24' E 001°01'0 0.0
2017-Nov-16 07:27N 49°24' E 001°01'0 0.0
2017-Nov-16 07:00N 49°24' E 001°01'0 0.0
2017-Nov-16 06:30N 49°24' E 001°01'0 0.0
2017-Nov-16 06:00N 49°24' E 001°01'0 0.0
2017-Nov-16 05:30N 49°24' E 001°01'0 0.0
2017-Nov-16 05:00N 49°24' E 001°01'0 0.0
2017-Nov-16 04:30N 49°24' E 001°01'0 0.0
2017-Nov-16 04:00N 49°24' E 001°01'0 0.0
2017-Nov-16 03:30N 49°24' E 001°01'0 0.0
2017-Nov-16 03:00N 49°24' E 001°01'0 0.0
2017-Nov-16 02:30N 49°24' E 001°01'0 0.0
2017-Nov-16 02:00N 49°24' E 001°01'0 0.0
2017-Nov-16 01:27N 49°24' E 001°01'0 0.0
2017-Nov-16 01:00N 49°24' E 001°01'0 0.0
2017-Nov-16 00:30N 49°24' E 001°01'0 0.0
2017-Nov-16 00:00N 49°24' E 001°01'0 0.0
2017-Nov-15 23:30N 49°24' E 001°01'0 0.0
2017-Nov-15 22:57N 49°24' E 001°01'0 0.0
2017-Nov-15 22:30N 49°24' E 001°01'0 0.0
2017-Nov-15 22:00N 49°24' E 001°01'0 0.0
2017-Nov-15 21:24N 49°24' E 001°01'0 0.0
2017-Nov-15 21:00N 49°24' E 001°01'0 0.0
2017-Nov-15 20:30N 49°24' E 001°01'0 0.0
2017-Nov-15 19:54N 49°24' E 001°01'0 0.0
2017-Nov-15 19:27N 49°24' E 001°01'0 0.0
2017-Nov-15 19:00N 49°24' E 001°01'0 0.0
2017-Nov-15 18:30N 49°24' E 001°01'0 0.0
2017-Nov-15 18:00N 49°24' E 001°01'0 0.0
2017-Nov-15 17:30N 49°24' E 001°01'0 0.0
2017-Nov-15 16:57N 49°24' E 001°01'0 0.0
2017-Nov-15 16:30N 49°24' E 001°01'0 0.0
2017-Nov-15 16:00N 49°24' E 001°01'0 0.0
2017-Nov-15 15:30N 49°24' E 001°01'0 0.0
2017-Nov-15 14:57N 49°24' E 001°01'0 0.0
2017-Nov-15 14:30N 49°24' E 001°01'0 0.0
2017-Nov-15 14:00N 49°24' E 001°01'0 0.0
2017-Nov-15 13:30N 49°24' E 001°01'0 0.0
2017-Nov-15 13:00N 49°24' E 001°01'0 0.0
2017-Nov-15 12:27N 49°24' E 001°01'0 0.0
2017-Nov-15 12:00N 49°24' E 001°01'0 0.0
2017-Nov-15 11:30N 49°24' E 001°01'0 0.0
2017-Nov-15 10:57N 49°24' E 001°01'0 0.0
2017-Nov-15 10:30N 49°24' E 001°01'0 0.0
2017-Nov-15 10:00N 49°24' E 001°01'0 0.0
2017-Nov-15 09:27N 49°24' E 001°01'0 0.0
2017-Nov-15 08:57N 49°24' E 001°01'0 0.0
2017-Nov-15 08:27N 49°24' E 001°01'0 0.0
2017-Nov-15 07:57N 49°24' E 001°01'  
Track history (hours):
 
Tides and Currents Weather Stations Pressure Air Temp Water Temp Dewpoint Dewpoint Depression Visibility Wind Speed Wind Dir Waves Ship Positions

Qi Xian Ling

Last reported at 2017-Nov-25 07:33 UTC. Time now 2017-Dec-17 02:38 UTC.
Position N 36°48' E 003°05'.
Warning: this ship's position is 21 days out of date.

Length 180 m; draft 9.9 m.

Type: Cargo ship. MMSI: 414708000.

Date/timePositionNaut miles runAvg speedWind from/ knotsBaromVisibWave heightAir tempDewpointWater temp
2017-Nov-25 07:33N 36°48' E 003°05'0 0.1
2017-Nov-25 07:30N 36°48' E 003°05'0 0.1
2017-Nov-25 07:00N 36°48' E 003°05'0 0.0
2017-Nov-24 15:30N 36°48' E 003°05'0 0.0
2017-Nov-24 12:27N 36°48' E 003°05'0 0.0
2017-Nov-24 11:50N 36°48' E 003°05'0 0.0
2017-Nov-24 11:29N 36°48' E 003°05'0 0.0
2017-Nov-24 01:32N 36°49' E 003°05'0 0.0
2017-Nov-24 01:26N 36°49' E 003°05'71 2.6
2017-Nov-22 22:22N 36°44' E 001°37'1012.4
2017-Nov-22 21:35N 36°43' E 001°25'112.3
2017-Nov-22 21:30N 36°43' E 001°23'1812.0
2017-Nov-22 20:01N 36°40' E 001°01'012.5
2017-Nov-22 19:59N 36°40' E 001°01'  
2017-Nov-18 16:00N 47°27' W 006°58'611.2
2017-Nov-18 15:26N 47°33' W 006°53'510.9
2017-Nov-18 15:00N 47°37' W 006°50'710.5
2017-Nov-18 14:22N 47°43' W 006°45'410.4
2017-Nov-18 13:58N 47°47' W 006°42'8212.0
2017-Nov-18 07:06N 48°57' W 005°38'1811.1
2017-Nov-18 05:28N 49°01' W 005°11'510.4
2017-Nov-18 04:59N 49°01' W 005°04'13110.6
2017-Nov-17 16:39N 50°00' W 002°04'211.7
2017-Nov-17 16:28N 49°60' W 002°01'612.1
2017-Nov-17 16:01N 49°58' W 001°53'612.7
2017-Nov-17 15:30N 49°56' W 001°43'713.6
2017-Nov-17 15:00N 49°53' W 001°33'714.8
2017-Nov-17 14:31N 49°51' W 001°23'815.7
2017-Nov-17 14:00N 49°48' W 001°11'815.3
2017-Nov-17 13:31N 49°45' W 001°00'1614.6
2017-Nov-17 12:26N 49°39' W 000°38'614.2
2017-Nov-17 12:00N 49°36' W 000°30'713.7
2017-Nov-17 11:30N 49°33' W 000°20'713.0
2017-Nov-17 11:00N 49°31' W 000°11'612.1
2017-Nov-17 10:30N 49°29' W 000°02'611.1
2017-Nov-17 10:00N 49°26' E 000°06'511.0
2017-Nov-17 09:31N 49°26' E 000°14'510.4
2017-Nov-17 09:00N 49°26' E 000°22'4 8.8
2017-Nov-17 08:30N 49°28' E 000°28'3 5.0
2017-Nov-17 08:00N 49°28' E 000°32'3 6.9
2017-Nov-17 07:30N 49°26' E 000°35'3 6.5
2017-Nov-17 07:01N 49°27' E 000°40'4 8.2
2017-Nov-17 06:30N 49°31' E 000°42'4 7.3
2017-Nov-17 06:00N 49°29' E 000°47'4 7.9
2017-Nov-17 05:30N 49°25' E 000°48'2 4.6
2017-Nov-17 05:00N 49°26' E 000°52'4 8.2
2017-Nov-17 04:31N 49°29' E 000°55'510.2
2017-Nov-17 04:00N 49°24' E 000°55'3 6.9
2017-Nov-17 03:30N 49°21' E 000°59'3 5.7
2017-Nov-17 03:00N 49°24' E 001°01'0 0.0
2017-Nov-17 02:24N 49°24' E 001°01'0 0.0
2017-Nov-17 01:57N 49°24' E 001°01'0 0.0
2017-Nov-17 01:30N 49°24' E 001°01'0 0.0
2017-Nov-17 01:00N 49°24' E 001°01'0 0.0
2017-Nov-17 00:30N 49°24' E 001°01'0 0.0
2017-Nov-17 00:00N 49°24' E 001°01'0 0.0
2017-Nov-16 23:30N 49°24' E 001°01'0 0.0
2017-Nov-16 23:00N 49°24' E 001°01'0 0.0
2017-Nov-16 22:27N 49°24' E 001°01'0 0.0
2017-Nov-16 22:00N 49°24' E 001°01'0 0.0
2017-Nov-16 21:30N 49°24' E 001°01'0 0.0
2017-Nov-16 21:00N 49°24' E 001°01'0 0.0
2017-Nov-16 20:30N 49°24' E 001°01'0 0.0
2017-Nov-16 20:00N 49°24' E 001°01'0 0.0
2017-Nov-16 19:30N 49°24' E 001°01'0 0.0
2017-Nov-16 19:00N 49°24' E 001°01'0 0.0
2017-Nov-16 18:30N 49°24' E 001°01'0 0.0
2017-Nov-16 18:00N 49°24' E 001°01'0 0.0
2017-Nov-16 17:27N 49°24' E 001°01'0 0.0
2017-Nov-16 17:00N 49°24' E 001°01'0 0.0
2017-Nov-16 16:30N 49°24' E 001°01'0 0.0
2017-Nov-16 16:00N 49°24' E 001°01'0 0.0
2017-Nov-16 15:30N 49°24' E 001°01'0 0.0
2017-Nov-16 15:00N 49°24' E 001°01'0 0.0
2017-Nov-16 14:27N 49°24' E 001°01'0 0.0
2017-Nov-16 13:57N 49°24' E 001°01'0 0.0
2017-Nov-16 13:30N 49°24' E 001°01'0 0.0
2017-Nov-16 13:00N 49°24' E 001°01'0 0.0
2017-Nov-16 12:30N 49°24' E 001°01'0 0.0
2017-Nov-16 12:00N 49°24' E 001°01'0 0.0
2017-Nov-16 11:27N 49°24' E 001°01'0 0.0
2017-Nov-16 10:57N 49°24' E 001°01'0 0.0
2017-Nov-16 10:30N 49°24' E 001°01'0 0.0
2017-Nov-16 09:57N 49°24' E 001°01'0 0.0
2017-Nov-16 09:27N 49°24' E 001°01'0 0.0
2017-Nov-16 09:00N 49°24' E 001°01'0 0.0
2017-Nov-16 08:30N 49°24' E 001°01'0 0.0
2017-Nov-16 07:57N 49°24' E 001°01'0 0.0
2017-Nov-16 07:27N 49°24' E 001°01'0 0.0
2017-Nov-16 07:00N 49°24' E 001°01'0 0.0
2017-Nov-16 06:30N 49°24' E 001°01'0 0.0
2017-Nov-16 06:00N 49°24' E 001°01'0 0.0
2017-Nov-16 05:30N 49°24' E 001°01'0 0.0
2017-Nov-16 05:00N 49°24' E 001°01'0 0.0
2017-Nov-16 04:30N 49°24' E 001°01'0 0.0
2017-Nov-16 04:00N 49°24' E 001°01'0 0.0
2017-Nov-16 03:30N 49°24' E 001°01'0 0.0
2017-Nov-16 03:00N 49°24' E 001°01'0 0.0
2017-Nov-16 02:30N 49°24' E 001°01'0 0.0
2017-Nov-16 02:00N 49°24' E 001°01'0 0.0
2017-Nov-16 01:27N 49°24' E 001°01'0 0.0
2017-Nov-16 01:00N 49°24' E 001°01'0 0.0
2017-Nov-16 00:30N 49°24' E 001°01'0 0.0
2017-Nov-16 00:00N 49°24' E 001°01'0 0.0
2017-Nov-15 23:30N 49°24' E 001°01'0 0.0
2017-Nov-15 22:57N 49°24' E 001°01'0 0.0
2017-Nov-15 22:30N 49°24' E 001°01'0 0.0
2017-Nov-15 22:00N 49°24' E 001°01'0 0.0
2017-Nov-15 21:24N 49°24' E 001°01'0 0.0
2017-Nov-15 21:00N 49°24' E 001°01'0 0.0
2017-Nov-15 20:30N 49°24' E 001°01'0 0.0
2017-Nov-15 19:54N 49°24' E 001°01'0 0.0
2017-Nov-15 19:27N 49°24' E 001°01'0 0.0
2017-Nov-15 19:00N 49°24' E 001°01'0 0.0
2017-Nov-15 18:30N 49°24' E 001°01'0 0.0
2017-Nov-15 18:00N 49°24' E 001°01'0 0.0
2017-Nov-15 17:30N 49°24' E 001°01'0 0.0
2017-Nov-15 16:57N 49°24' E 001°01'0 0.0
2017-Nov-15 16:30N 49°24' E 001°01'0 0.0
2017-Nov-15 16:00N 49°24' E 001°01'0 0.0
2017-Nov-15 15:30N 49°24' E 001°01'0 0.0
2017-Nov-15 14:57N 49°24' E 001°01'0 0.0
2017-Nov-15 14:30N 49°24' E 001°01'0 0.0
2017-Nov-15 14:00N 49°24' E 001°01'0 0.0
2017-Nov-15 13:30N 49°24' E 001°01'0 0.0
2017-Nov-15 13:00N 49°24' E 001°01'0 0.0
2017-Nov-15 12:27N 49°24' E 001°01'0 0.0
2017-Nov-15 12:00N 49°24' E 001°01'0 0.0
2017-Nov-15 11:30N 49°24' E 001°01'0 0.0
2017-Nov-15 10:57N 49°24' E 001°01'0 0.0
2017-Nov-15 10:30N 49°24' E 001°01'0 0.0
2017-Nov-15 10:00N 49°24' E 001°01'0 0.0
2017-Nov-15 09:27N 49°24' E 001°01'0 0.0
2017-Nov-15 08:57N 49°24' E 001°01'0 0.0
2017-Nov-15 08:27N 49°24' E 001°01'0 0.0
2017-Nov-15 07:57N 49°24' E 001°01'  

Dump ship's entire track history